Time;durP1;ratioP1;P1;durP2;ratioP2;P2;SDS_P1;SDS_P2;PMS_P1;PMS_P2;Temp;Humidity;BMP_temperature;BMP_pressure;BME280_temperature;BME280_humidity;BME280_pressure;Samples;Min_cycle;Max_cycle;Signal;HPM_P1;HPM_P2
2021/04/11 00:01:13;;;;;;;22.93;14.45;;;;;;;6.81;41.21;100302.68;1712310;81;21654;-42
2021/04/11 00:03:41;;;;;;;24.20;12.98;;;;;;;6.82;41.23;100308.87;1724527;83;21158;-42
2021/04/11 00:06:10;;;;;;;26.27;15.00;;;;;;;6.81;41.26;100303.23;1723318;81;21170;-42
2021/04/11 00:08:38;;;;;;;21.82;13.50;;;;;;;6.77;41.24;100303.06;1732787;81;21178;-41
2021/04/11 00:11:08;;;;;;;20.40;12.70;;;;;;;6.78;41.38;100305.18;1704340;81;21082;-42
2021/04/11 00:13:38;;;;;;;21.27;13.58;;;;;;;6.75;41.31;100308.51;1770346;80;21052;-42
2021/04/11 00:16:08;;;;;;;25.27;13.32;;;;;;;6.73;41.34;100308.81;1711702;81;21059;-42
2021/04/11 00:18:35;;;;;;;23.52;13.75;;;;;;;6.72;41.35;100310.48;1683081;84;21186;-42
2021/04/11 00:21:05;;;;;;;23.70;13.62;;;;;;;6.70;41.46;100312.69;1697998;84;21631;-42
2021/04/11 00:23:33;;;;;;;20.97;13.60;;;;;;;6.68;41.54;100307.59;1697055;84;21378;-42
2021/04/11 00:26:01;;;;;;;25.00;14.10;;;;;;;6.66;41.65;100315.77;1680355;84;21217;-41
2021/04/11 00:28:29;;;;;;;25.37;13.40;;;;;;;6.62;41.65;100316.94;1694045;84;21629;-41
2021/04/11 00:30:59;;;;;;;20.65;12.82;;;;;;;6.62;41.91;100314.80;1673818;84;21214;-42
2021/04/11 00:33:32;;;;;;;26.50;12.73;;;;;;;6.62;41.84;100317.49;1683509;84;21182;-42
2021/04/11 00:36:03;;;;;;;21.02;12.75;;;;;;;6.62;41.63;100319.64;1691702;84;21649;-42
2021/04/11 00:38:31;;;;;;;25.10;13.72;;;;;;;6.61;41.64;100309.16;1679545;84;21027;-42
2021/04/11 00:41:05;;;;;;;22.58;12.95;;;;;;;6.59;41.65;100316.74;1673282;84;21187;-42
2021/04/11 00:43:38;;;;;;;23.40;13.03;;;;;;;6.55;41.85;100310.64;1668051;84;21652;-42
2021/04/11 00:46:47;;;;;;;22.85;13.25;;;;;;;6.53;41.82;100319.56;1673312;84;21232;-42
2021/04/11 00:49:43;;;;;;;20.08;13.32;;;;;;;6.51;41.90;100316.41;1690283;84;21283;-42
2021/04/11 00:52:15;;;;;;;26.52;13.88;;;;;;;6.45;42.06;100321.67;1673620;84;21632;-42
2021/04/11 00:54:43;;;;;;;22.87;14.23;;;;;;;6.43;42.05;100320.41;1672693;85;21656;-42
2021/04/11 00:57:12;;;;;;;21.42;13.68;;;;;;;6.43;42.19;100323.89;1680320;84;21149;-42
2021/04/11 00:59:40;;;;;;;21.73;13.05;;;;;;;6.40;42.25;100323.14;1692114;84;21600;-42
2021/04/11 01:02:09;;;;;;;25.30;13.80;;;;;;;6.37;42.46;100329.16;1695318;84;21442;-42
2021/04/11 01:04:37;;;;;;;19.12;12.88;;;;;;;6.32;42.37;100337.36;1701042;84;21205;-42
2021/04/11 01:07:11;;;;;;;21.80;13.58;;;;;;;6.25;42.46;100327.56;1687994;84;21720;-42
2021/04/11 01:09:45;;;;;;;18.30;11.97;;;;;;;6.24;42.47;100334.07;1672935;84;21237;-42
2021/04/11 01:12:18;;;;;;;21.82;13.38;;;;;;;6.22;42.61;100329.53;1686355;84;21177;-42
2021/04/11 01:14:48;;;;;;;21.62;12.70;;;;;;;6.20;42.63;100330.38;1673142;84;21070;-42
2021/04/11 01:17:18;;;;;;;;;;;;;;;6.19;43.32;100327.46;1727352;82;21157;-42
2021/04/11 01:19:49;;;;;;;26.55;12.78;;;;;;;6.19;43.44;100326.66;1733129;82;20388;-42
2021/04/11 01:23:04;;;;;;;24.90;12.95;;;;;;;6.06;43.91;100326.95;1702146;83;21584;-42
2021/04/11 01:25:34;;;;;;;22.62;13.15;;;;;;;6.06;43.84;100330.98;1729593;82;21154;-41
2021/04/11 01:28:10;;;;;;;24.05;13.38;;;;;;;6.01;43.35;100331.11;1728796;82;22087;-41
2021/04/11 01:30:41;;;;;;;20.97;13.08;;;;;;;5.99;43.35;100330.63;1706425;82;21930;-41
2021/04/11 01:33:20;;;;;;;23.55;13.05;;;;;;;5.99;43.33;100338.70;1710535;82;21017;-41
2021/04/11 01:35:51;;;;;;;24.52;13.10;;;;;;;5.97;43.29;100336.86;1726289;82;21190;-42
2021/04/11 01:38:19;;;;;;;23.45;13.65;;;;;;;5.95;43.44;100340.42;1736915;82;22206;-42
2021/04/11 01:41:17;;;;;;;22.82;13.00;;;;;;;5.93;43.89;100334.53;1737008;81;21636;-42
2021/04/11 01:43:47;;;;;;;20.57;12.43;;;;;;;5.90;44.65;100335.16;1734592;82;21203;-42
2021/04/11 01:46:16;;;;;;;20.20;12.88;;;;;;;5.86;45.92;100335.46;1738840;82;21600;-42
2021/04/11 01:48:45;;;;;;;19.12;12.53;;;;;;;5.83;45.28;100332.05;1717109;82;21151;-42
2021/04/11 01:51:15;;;;;;;21.27;12.75;;;;;;;5.79;44.96;100329.17;1709531;82;21161;-42
2021/04/11 01:53:42;;;;;;;18.60;12.47;;;;;;;5.68;44.87;100319.18;1730182;82;21390;-42
2021/04/11 01:56:11;;;;;;;22.15;13.53;;;;;;;5.72;44.66;100329.33;1735905;82;21225;-42
2021/04/11 01:58:40;;;;;;;20.48;12.65;;;;;;;5.68;44.58;100336.67;1725464;82;21205;-42
2021/04/11 02:01:31;;;;;;;21.75;13.20;;;;;;;5.65;45.40;100329.22;1724869;82;21225;-42
2021/04/11 02:04:04;;;;;;;22.87;13.45;;;;;;;5.62;46.88;100327.66;1728270;82;21209;-41
2021/04/11 02:06:35;;;;;;;23.67;13.35;;;;;;;5.56;45.88;100331.03;1716577;81;21388;-42
2021/04/11 02:09:12;;;;;;;21.77;13.10;;;;;;;5.53;45.91;100333.51;1709026;83;21220;-42
2021/04/11 02:11:45;;;;;;;21.97;13.48;;;;;;;5.50;45.82;100335.47;1708994;82;21074;-42
2021/04/11 02:14:14;;;;;;;;;;;;;;;5.44;45.51;100337.47;1750965;81;21197;-41
2021/04/11 02:16:43;;;;;;;21.77;12.63;;;;;;;5.40;45.45;100332.45;1720195;81;20226;-41
2021/04/11 02:19:22;;;;;;;21.68;13.08;;;;;;;5.27;45.81;100340.53;1740211;81;21391;-42
2021/04/11 02:22:14;;;;;;;20.68;12.45;;;;;;;5.25;45.56;100342.16;1722055;81;21183;-42
2021/04/11 02:24:43;;;;;;;22.40;12.45;;;;;;;5.22;45.75;100339.55;1723883;81;21122;-41
2021/04/11 02:27:15;;;;;;;20.97;13.08;;;;;;;5.17;46.02;100342.88;1721060;81;21566;-41
2021/04/11 02:29:45;;;;;;;20.40;12.68;;;;;;;5.12;45.93;100335.71;1719065;81;22385;-42
2021/04/11 02:32:16;;;;;;;22.17;12.90;;;;;;;5.09;46.31;100347.59;1753683;80;23525;-41
2021/04/11 02:34:44;;;;;;;20.97;12.82;;;;;;;5.06;47.07;100346.84;1763290;80;21516;-42
2021/04/11 02:37:21;;;;;;;;;;;;;;;5.01;46.60;100345.61;1736955;81;21171;-41
2021/04/11 02:39:49;;;;;;;19.40;12.80;;;;;;;4.99;46.99;100346.44;1724372;80;20299;-42
2021/04/11 02:42:22;;;;;;;18.80;12.43;;;;;;;4.87;46.80;100348.83;1685552;83;21233;-42
2021/04/11 02:44:53;;;;;;;18.25;11.83;;;;;;;4.89;48.07;100356.06;1698280;81;21040;-42
2021/04/11 02:47:23;;;;;;;21.87;12.88;;;;;;;4.89;48.65;100358.75;1738163;81;21205;-42
2021/04/11 02:49:53;;;;;;;21.62;12.00;;;;;;;4.85;48.38;100358.52;1724390;81;21174;-41
2021/04/11 02:52:28;;;;;;;21.27;12.63;;;;;;;4.83;47.71;100360.73;1728815;81;21161;-41
2021/04/11 02:54:58;;;;;;;19.27;12.20;;;;;;;4.80;47.27;100362.64;1754792;80;21625;-41
2021/04/11 02:57:26;;;;;;;20.07;11.53;;;;;;;4.78;48.47;100366.98;1743915;80;22263;-40
2021/04/11 02:59:56;;;;;;;20.45;12.43;;;;;;;4.80;49.76;100370.16;1730932;81;21012;-40
2021/04/11 03:02:25;;;;;;;22.50;12.53;;;;;;;4.79;49.26;100377.96;1736034;81;21040;-40
2021/04/11 03:04:55;;;;;;;21.12;13.10;;;;;;;4.80;48.48;100380.11;1724525;81;21170;-40
2021/04/11 03:07:46;;;;;;;22.58;12.13;;;;;;;4.79;48.76;100378.53;1696707;83;21151;-40
2021/04/11 03:10:29;;;;;;;24.00;13.75;;;;;;;4.77;49.66;100385.53;1723250;83;23521;-41
2021/04/11 03:12:58;;;;;;;20.43;12.18;;;;;;;4.72;49.60;100385.63;1742757;81;21641;-40
2021/04/11 03:15:28;;;;;;;19.85;12.00;;;;;;;4.71;49.08;100388.59;1672936;83;21226;-40
2021/04/11 03:17:57;;;;;;;23.40;13.88;;;;;;;4.71;48.58;100390.73;1724869;81;21076;-40
2021/04/11 03:20:31;;;;;;;22.27;12.58;;;;;;;4.70;48.57;100392.37;1719162;81;21187;-40
2021/04/11 03:23:05;;;;;;;20.68;13.48;;;;;;;4.68;47.93;100393.23;1678461;84;21913;-40
2021/04/11 03:25:34;;;;;;;19.40;12.18;;;;;;;4.68;47.78;100402.63;1678131;84;21209;-39
2021/04/11 03:28:19;;;;;;;23.10;13.35;;;;;;;4.67;47.60;100400.48;1736764;81;21052;-41
2021/04/11 03:31:03;;;;;;;20.95;12.90;;;;;;;4.69;47.51;100410.40;1713392;81;21202;-40
2021/04/11 03:33:34;;;;;;;22.45;12.55;;;;;;;4.69;48.09;100410.94;1723855;81;21231;-40
2021/04/11 03:36:04;;;;;;;21.02;12.35;;;;;;;4.69;48.50;100409.05;1707942;81;22319;-40
2021/04/11 03:38:33;;;;;;;21.45;11.93;;;;;;;4.70;48.16;100418.69;1700243;81;21222;-41
2021/04/11 03:41:02;;;;;;;22.82;13.22;;;;;;;4.72;47.81;100421.89;1723448;81;21604;-40
2021/04/11 03:43:47;;;;;;;21.95;12.90;;;;;;;4.73;47.80;100423.48;1749311;81;21193;-40
2021/04/11 03:46:53;;;;;;;19.10;12.45;;;;;;;4.72;47.31;100424.58;1701312;83;21156;-40
2021/04/11 03:49:46;;;;;;;21.35;12.50;;;;;;;4.70;47.93;100423.25;1742484;81;21357;-40
2021/04/11 03:52:25;;;;;;;21.10;13.10;;;;;;;4.71;47.70;100426.20;1734696;81;21174;-41
2021/04/11 03:54:54;;;;;;;20.17;12.90;;;;;;;4.73;48.13;100431.55;1709584;81;21202;-41
2021/04/11 03:57:29;;;;;;;22.70;12.90;;;;;;;4.78;47.41;100433.35;1735799;80;21170;-42
2021/04/11 04:00:05;;;;;;;22.40;12.85;;;;;;;4.84;48.18;100439.44;1743690;81;21222;-42
2021/04/11 04:02:38;;;;;;;18.70;12.58;;;;;;;4.88;47.95;100440.44;1728899;81;21390;-42
2021/04/11 04:05:10;;;;;;;23.95;13.00;;;;;;;4.93;47.43;100444.37;1772700;80;21591;-42
2021/04/11 04:07:50;;;;;;;20.55;12.65;;;;;;;4.99;47.59;100444.52;1731204;81;21221;-42
2021/04/11 04:10:20;;;;;;;21.42;12.28;;;;;;;5.02;48.34;100446.64;1709684;83;21637;-42
2021/04/11 04:13:21;;;;;;;22.45;13.70;;;;;;;5.06;48.68;100442.26;1712052;82;21632;-42
2021/04/11 04:16:18;;;;;;;20.25;13.32;;;;;;;5.10;48.63;100451.32;1739855;81;23470;-42
2021/04/11 04:19:26;;;;;;;21.65;12.88;;;;;;;5.11;47.62;100464.47;1722026;81;21621;-42
2021/04/11 04:22:12;;;;;;;17.85;11.75;;;;;;;5.15;47.24;100458.75;1698703;81;21115;-42
2021/04/11 04:25:03;;;;;;;22.37;12.95;;;;;;;5.20;46.94;100461.34;1724304;81;21632;-42
2021/04/11 04:27:41;;;;;;;19.55;12.63;;;;;;;5.26;46.66;100453.99;1742684;80;25294;-42
2021/04/11 04:30:26;;;;;;;18.10;11.97;;;;;;;5.33;46.47;100465.68;1648059;83;21225;-39
2021/04/11 04:33:17;;;;;;;21.27;12.75;;;;;;;5.39;46.37;100474.71;1725964;80;21814;-41
2021/04/11 04:36:10;;;;;;;22.45;13.43;;;;;;;5.42;46.35;100470.07;1741451;80;21214;-41
2021/04/11 04:39:24;;;;;;;22.35;13.32;;;;;;;5.47;46.41;100474.59;1734409;81;21390;-40
2021/04/11 04:42:16;;;;;;;19.98;12.78;;;;;;;5.50;46.56;100472.09;1738707;81;21197;-40
2021/04/11 04:45:06;;;;;;;27.13;13.85;;;;;;;5.54;46.55;100469.59;1710376;81;22247;-41
2021/04/11 04:47:44;;;;;;;21.90;13.30;;;;;;;5.61;46.63;100472.15;1751904;81;21207;-41
2021/04/11 04:50:32;;;;;;;23.38;13.43;;;;;;;5.70;46.77;100476.27;1729218;81;21193;-40
2021/04/11 04:53:22;;;;;;;21.35;12.45;;;;;;;5.76;46.72;100476.98;1736791;81;21047;-41
2021/04/11 04:55:53;;;;;;;19.73;12.78;;;;;;;5.82;46.83;100475.20;1732225;81;21175;-41
2021/04/11 04:58:26;;;;;;;23.00;12.98;;;;;;;5.89;46.92;100478.33;1740811;80;21205;-40
2021/04/11 05:00:58;;;;;;;17.77;12.10;;;;;;;5.99;46.84;100482.16;1745252;81;21159;-41
2021/04/11 05:03:41;;;;;;;22.80;12.98;;;;;;;6.14;46.53;100477.00;1858904;76;22637;-41
2021/04/11 05:06:30;;;;;;;22.27;13.00;;;;;;;6.21;46.47;100488.14;1843228;77;20985;-40
2021/04/11 05:09:12;;;;;;;20.05;12.07;;;;;;;6.32;46.30;100486.83;1826087;77;22237;-40
2021/04/11 05:11:49;;;;;;;19.98;12.73;;;;;;;6.43;46.20;100486.05;1835845;77;21042;-40
2021/04/11 05:14:22;;;;;;;20.92;12.33;;;;;;;6.53;46.30;100487.94;1803958;78;21046;-41
2021/04/11 05:17:07;;;;;;;16.35;11.30;;;;;;;6.66;46.12;100496.30;1829191;77;21659;-42
2021/04/11 05:19:42;;;;;;;21.00;11.93;;;;;;;6.77;45.97;100494.96;1853637;77;21126;-41
2021/04/11 05:22:41;;;;;;;19.85;11.78;;;;;;;6.88;45.80;100500.33;1848047;77;21202;-41
2021/04/11 05:25:56;;;;;;;17.25;12.10;;;;;;;7.06;45.54;100499.36;1822755;78;22867;-41
2021/04/11 05:28:36;;;;;;;19.70;11.10;;;;;;;7.11;45.37;100504.63;1778296;79;21143;-43
2021/04/11 05:31:19;;;;;;;18.75;11.33;;;;;;;7.25;45.34;100499.95;1881878;76;22701;-41
2021/04/11 05:33:49;;;;;;;16.40;11.22;;;;;;;7.31;45.70;100501.97;1826877;77;21150;-42
2021/04/11 05:36:55;;;;;;;18.73;10.72;;;;;;;7.42;45.43;100509.47;1800977;77;20999;-41
2021/04/11 05:39:47;;;;;;;16.48;10.72;;;;;;;7.54;45.42;100512.14;1827313;77;21060;-42
2021/04/11 05:42:32;;;;;;;19.55;11.25;;;;;;;7.66;44.85;100512.34;1840590;77;21588;-41
2021/04/11 05:45:30;;;;;;;20.68;11.57;;;;;;;7.78;44.77;100512.01;1858513;77;21011;-41
2021/04/11 05:48:39;;;;;;;16.37;9.95;;;;;;;7.90;44.66;100515.45;1834957;77;21019;-42
2021/04/11 05:51:20;;;;;;;16.37;10.03;;;;;;;7.99;44.14;100518.96;1818319;77;21207;-42
2021/04/11 05:53:56;;;;;;;15.45;10.60;;;;;;;8.12;43.95;100526.16;1836391;77;21059;-42
2021/04/11 05:56:37;;;;;;;16.75;11.00;;;;;;;8.22;43.95;100521.82;1837937;77;21131;-42
2021/04/11 05:59:13;;;;;;;19.07;9.98;;;;;;;8.33;43.21;100517.50;1813738;79;21023;-42
2021/04/11 06:01:51;;;;;;;19.80;11.10;;;;;;;8.44;43.53;100519.56;1805664;77;21573;-42
2021/04/11 06:04:43;;;;;;;18.37;11.35;;;;;;;8.57;43.01;100517.81;1845431;77;22100;-42
2021/04/11 06:07:26;;;;;;;16.52;10.60;;;;;;;8.68;42.10;100517.74;1851027;76;21158;-42
2021/04/11 06:10:12;;;;;;;18.20;11.33;;;;;;;8.82;42.57;100516.22;1835448;78;22797;-41
2021/04/11 06:12:55;;;;;;;19.65;12.05;;;;;;;8.86;42.27;100519.91;1790626;79;21028;-42
2021/04/11 06:15:30;;;;;;;20.97;12.28;;;;;;;8.95;42.13;100526.09;1776121;79;21272;-41
2021/04/11 06:17:59;;;;;;;20.68;12.05;;;;;;;9.04;42.38;100523.62;1806007;79;20957;-42
2021/04/11 06:20:28;;;;;;;16.85;12.20;;;;;;;9.19;42.49;100524.23;1802543;79;21641;-41
2021/04/11 06:23:28;;;;;;;19.85;11.78;;;;;;;9.31;42.65;100527.05;1807466;79;21036;-42
2021/04/11 06:26:13;;;;;;;18.95;10.82;;;;;;;9.45;42.45;100523.03;1795251;79;21118;-41
2021/04/11 06:28:55;;;;;;;18.85;11.78;;;;;;;9.57;42.00;100529.13;1800787;79;22395;-41
2021/04/11 06:31:29;;;;;;;16.73;11.22;;;;;;;9.69;41.97;100533.85;1778015;79;21059;-42
2021/04/11 06:34:17;;;;;;;17.75;11.48;;;;;;;9.82;41.34;100527.45;1790288;77;21621;-41
2021/04/11 06:36:47;;;;;;;19.00;11.50;;;;;;;9.96;41.54;100531.52;1805742;79;21016;-43
2021/04/11 06:39:26;;;;;;;19.00;11.25;;;;;;;10.12;40.94;100529.61;1718200;82;21166;-42
2021/04/11 06:42:31;;;;;;;14.70;10.95;;;;;;;10.25;40.94;100528.59;1729787;82;22310;-42
2021/04/11 06:45:20;;;;;;;16.57;10.05;;;;;;;10.40;40.67;100529.38;1713277;83;21177;-42
2021/04/11 06:48:35;;;;;;;18.32;11.22;;;;;;;10.62;39.82;100535.03;1742873;81;21189;-42
2021/04/11 06:51:30;;;;;;;15.28;10.20;;;;;;;10.80;39.67;100537.83;1719143;82;21609;-42
2021/04/11 06:54:16;;;;;;;16.62;11.05;;;;;;;10.99;39.04;100538.73;1713310;82;21071;-42
2021/04/11 06:57:19;;;;;;;13.68;9.70;;;;;;;11.22;38.99;100529.08;1829135;78;22973;-42
2021/04/11 07:00:12;;;;;;;13.32;9.83;;;;;;;11.35;38.65;100536.12;1803313;79;21612;-42
2021/04/11 07:03:19;;;;;;;16.25;10.03;;;;;;;11.53;37.93;100539.43;1799127;77;22216;-42
2021/04/11 07:06:37;;;;;;;16.17;9.90;;;;;;;11.69;37.55;100539.81;1809282;79;21006;-42
2021/04/11 07:09:32;;;;;;;15.88;10.05;;;;;;;11.90;37.66;100537.59;1796205;79;21032;-41
2021/04/11 07:12:44;;;;;;;14.13;9.25;;;;;;;12.12;36.87;100543.92;1803226;79;20975;-42
2021/04/11 07:15:37;;;;;;;15.18;9.40;;;;;;;12.30;35.87;100541.74;1781674;79;20980;-42
2021/04/11 07:18:45;;;;;;;12.78;8.20;;;;;;;12.46;36.10;100543.43;1787787;79;21473;-43
2021/04/11 07:22:10;;;;;;;14.38;9.20;;;;;;;12.67;35.70;100541.92;1804110;79;21023;-43
2021/04/11 07:25:05;;;;;;;10.68;7.30;;;;;;;12.94;35.48;100553.39;1795696;79;21724;-43
2021/04/11 07:28:02;;;;;;;13.90;8.23;;;;;;;13.19;34.16;100548.66;1776631;79;21545;-42
2021/04/11 07:30:46;;;;;;;11.65;7.45;;;;;;;13.42;33.39;100548.87;1778461;79;21174;-43
2021/04/11 07:33:41;;;;;;;8.20;6.20;;;;;;;13.65;32.93;100548.50;1789244;79;21338;-43
2021/04/11 07:36:27;;;;;;;11.38;7.05;;;;;;;13.62;32.04;100504.82;1784540;79;21175;-42
2021/04/11 07:39:42;;;;;;;12.15;7.30;;;;;;;14.07;31.92;100544.69;1777600;79;20960;-42
2021/04/11 07:42:54;;;;;;;12.98;6.78;;;;;;;14.24;31.90;100545.66;1786174;79;21158;-42
2021/04/11 07:45:37;;;;;;;8.78;5.78;;;;;;;14.46;31.16;100548.91;1795296;79;21178;-42
2021/04/11 07:48:42;;;;;;;8.13;5.62;;;;;;;14.68;30.28;100555.83;1776440;79;21210;-42
2021/04/11 07:51:48;;;;;;;8.18;6.00;;;;;;;14.88;29.42;100551.17;1783673;79;21421;-42
2021/04/11 07:54:47;;;;;;;8.30;5.67;;;;;;;15.05;29.51;100549.96;1770919;79;21020;-44
2021/04/11 07:57:35;;;;;;;9.98;6.25;;;;;;;15.29;28.73;100554.32;1802390;79;21557;-44
2021/04/11 08:00:16;;;;;;;10.40;5.80;;;;;;;15.46;28.88;100542.91;1793210;79;21173;-44
2021/04/11 08:03:17;;;;;;;8.40;4.85;;;;;;;15.75;27.14;100546.39;1789606;79;21276;-44
2021/04/11 08:06:40;;;;;;;6.45;4.97;;;;;;;15.89;26.51;100541.72;1783181;79;21039;-44
2021/04/11 08:09:44;;;;;;;9.48;6.17;;;;;;;15.96;26.77;100541.85;1787186;79;21122;-44
2021/04/11 08:12:57;;;;;;;11.38;6.90;;;;;;;16.09;26.86;100541.28;1779654;79;21142;-43
2021/04/11 08:15:49;;;;;;;9.93;6.92;;;;;;;16.22;26.56;100541.85;1797581;79;21118;-44
2021/04/11 08:18:25;;;;;;;7.67;5.47;;;;;;;16.27;26.04;100537.43;1803838;79;21355;-43
2021/04/11 08:21:44;;;;;;;9.13;6.65;;;;;;;16.37;25.50;100535.43;1791586;79;21621;-43
2021/04/11 08:24:44;;;;;;;9.43;6.35;;;;;;;16.44;25.95;100530.64;1807357;79;21142;-43
2021/04/11 08:27:34;;;;;;;8.13;6.20;;;;;;;16.59;26.55;100533.03;1793685;79;21171;-43
2021/04/11 08:30:31;;;;;;;8.73;5.75;;;;;;;16.77;26.03;100540.30;1795384;79;21182;-43
2021/04/11 08:33:34;;;;;;;7.35;5.58;;;;;;;16.86;25.20;100538.06;1789516;79;21344;-43
2021/04/11 08:36:42;;;;;;;8.80;5.92;;;;;;;17.02;25.24;100529.65;1793174;79;21027;-43
2021/04/11 08:39:24;;;;;;;8.98;5.55;;;;;;;17.19;24.51;100530.98;1780534;79;21146;-43
2021/04/11 08:42:28;;;;;;;8.03;5.80;;;;;;;17.25;25.13;100526.17;1778766;79;21194;-43
2021/04/11 08:45:14;;;;;;;7.97;5.70;;;;;;;17.45;24.72;100534.99;1806177;79;21202;-45
2021/04/11 08:48:19;;;;;;;7.85;5.50;;;;;;;17.72;24.73;100528.21;1793324;79;21173;-44
2021/04/11 08:51:05;;;;;;;9.50;6.37;;;;;;;17.95;23.65;100528.61;1787891;79;21206;-43
2021/04/11 08:53:46;;;;;;;9.00;5.95;;;;;;;18.09;24.02;100516.36;1783142;79;21146;-43
2021/04/11 08:56:50;;;;;;;11.80;6.87;;;;;;;18.20;24.38;100517.98;1794583;79;21159;-43
2021/04/11 08:59:52;;;;;;;9.65;6.40;;;;;;;18.37;23.91;100513.00;1770613;79;21175;-44
2021/04/11 09:02:59;;;;;;;8.93;6.45;;;;;;;18.49;23.78;100516.80;1780537;79;21166;-43
2021/04/11 09:06:07;;;;;;;9.10;5.83;;;;;;;18.48;24.29;100513.85;1751721;79;21221;-43
2021/04/11 09:09:09;;;;;;;9.90;6.05;;;;;;;18.60;23.78;100506.08;1777077;79;21151;-43
2021/04/11 09:12:19;;;;;;;8.78;6.22;;;;;;;18.76;23.30;100503.60;1769505;79;21088;-44
2021/04/11 09:15:26;;;;;;;9.68;6.35;;;;;;;18.78;23.04;100502.06;1784384;79;21150;-45
2021/04/11 09:18:22;;;;;;;9.18;6.37;;;;;;;18.87;23.66;100501.69;1768492;79;21186;-45
2021/04/11 09:21:26;;;;;;;10.18;7.12;;;;;;;19.06;24.05;100491.15;1765365;79;21162;-46
2021/04/11 09:24:25;;;;;;;7.80;5.70;;;;;;;19.32;23.13;100487.84;1766927;79;21028;-43
2021/04/11 09:27:20;;;;;;;11.10;6.78;;;;;;;19.50;22.06;100489.48;1788929;79;21068;-43
2021/04/11 09:30:30;;;;;;;8.65;6.33;;;;;;;19.56;22.16;100482.22;1760725;79;21160;-43
2021/04/11 09:33:39;;;;;;;9.33;6.50;;;;;;;19.65;22.15;100483.98;1788131;79;21193;-43
2021/04/11 09:36:51;;;;;;;8.78;6.28;;;;;;;19.75;21.66;100479.83;1791678;79;21180;-43
2021/04/11 09:39:40;;;;;;;7.75;5.80;;;;;;;19.96;21.31;100477.66;1765268;79;21201;-43
2021/04/11 09:42:40;;;;;;;7.80;5.37;;;;;;;20.10;20.76;100474.09;1780717;79;21624;-43
2021/04/11 09:45:20;;;;;;;15.93;6.70;;;;;;;20.29;21.50;100472.27;1778601;79;21174;-44
2021/04/11 09:48:12;;;;;;;9.10;6.08;;;;;;;20.45;19.81;100471.86;1787012;79;21281;-43
2021/04/11 09:51:06;;;;;;;8.33;5.53;;;;;;;20.49;20.63;100472.62;1791878;79;21167;-43
2021/04/11 09:53:51;;;;;;;8.75;5.90;;;;;;;20.64;19.97;100472.77;1790600;79;21178;-43
2021/04/11 09:57:01;;;;;;;10.48;6.35;;;;;;;20.75;19.72;100472.13;1766481;79;21190;-43
2021/04/11 10:00:09;;;;;;;9.75;5.87;;;;;;;20.82;20.05;100470.70;1763052;80;21198;-43
2021/04/11 10:03:02;;;;;;;11.60;6.72;;;;;;;20.99;20.40;100464.92;1726221;81;21206;-43
2021/04/11 10:05:54;;;;;;;6.87;5.67;;;;;;;21.05;20.27;100417.23;1837960;78;22878;-44
2021/04/11 10:08:58;;;;;;;7.72;5.80;;;;;;;21.47;19.88;100459.49;1748373;82;20995;-44
2021/04/11 10:12:04;;;;;;;7.67;5.92;;;;;;;21.63;19.75;100458.38;1778205;80;21273;-44
2021/04/11 10:14:41;;;;;;;8.05;5.40;;;;;;;21.61;19.31;100468.44;1779276;80;21039;-44
2021/04/11 10:17:41;;;;;;;8.83;5.90;;;;;;;21.59;19.14;100463.91;1742525;80;21060;-44
2021/04/11 10:20:53;;;;;;;8.40;5.83;;;;;;;21.74;19.19;100457.67;1737010;81;21047;-44
2021/04/11 10:23:57;;;;;;;7.33;5.78;;;;;;;21.93;19.23;100454.36;1737202;81;21186;-44
2021/04/11 10:26:40;;;;;;;10.53;6.40;;;;;;;22.19;19.41;100447.98;1748262;80;21377;-42
2021/04/11 10:29:21;;;;;;;8.90;6.00;;;;;;;22.28;19.18;100448.27;1744226;82;21051;-43
2021/04/11 10:32:32;;;;;;;7.53;6.10;;;;;;;22.34;19.13;100450.77;1773958;80;21213;-42
2021/04/11 10:35:21;;;;;;;9.28;6.25;;;;;;;22.35;18.51;100443.47;1748296;80;21183;-42
2021/04/11 10:38:01;;;;;;;8.38;6.60;;;;;;;22.37;19.11;100444.41;1727012;81;21589;-43
2021/04/11 10:40:36;;;;;;;8.95;6.03;;;;;;;22.45;19.16;100444.53;1741978;81;21161;-44
2021/04/11 10:43:21;;;;;;;8.85;6.37;;;;;;;22.68;18.88;100438.31;1727835;81;21182;-44
2021/04/11 10:46:10;;;;;;;9.25;5.80;;;;;;;22.73;18.73;100445.58;1698966;83;21218;-44
2021/04/11 10:49:23;;;;;;;7.55;5.95;;;;;;;22.71;18.13;100445.80;1723005;83;21213;-44
2021/04/11 10:52:20;;;;;;;8.43;5.72;;;;;;;22.71;18.33;100445.20;1722838;83;21222;-44
2021/04/11 10:55:07;;;;;;;8.90;6.47;;;;;;;22.70;18.04;100432.59;1728686;82;21083;-44
2021/04/11 10:58:02;;;;;;;7.10;5.97;;;;;;;22.56;17.60;100438.25;1730391;81;21625;-42
2021/04/11 11:00:41;;;;;;;7.97;5.87;;;;;;;22.41;18.26;100431.36;1721768;83;21167;-42
2021/04/11 11:03:32;;;;;;;10.05;6.60;;;;;;;22.51;18.14;100429.83;1723073;82;21163;-42
2021/04/11 11:06:27;;;;;;;8.33;6.03;;;;;;;22.76;18.18;100434.27;1741576;81;21178;-42
2021/04/11 11:09:38;;;;;;;9.93;6.53;;;;;;;23.02;17.97;100428.58;1743761;81;21296;-42
2021/04/11 11:12:46;;;;;;;7.95;6.28;;;;;;;23.19;18.69;100428.30;1735811;82;21176;-43
2021/04/11 11:15:20;;;;;;;9.05;6.08;;;;;;;23.25;18.16;100420.31;1750099;80;21155;-43
2021/04/11 11:18:15;;;;;;;8.60;6.25;;;;;;;23.23;18.16;100415.22;1830114;78;23298;-44
2021/04/11 11:21:18;;;;;;;10.03;6.72;;;;;;;23.08;17.77;100422.77;1790238;79;21727;-44
2021/04/11 11:24:09;;;;;;;8.18;6.20;;;;;;;23.10;18.04;100412.05;1777107;78;21034;-44
2021/04/11 11:26:57;;;;;;;11.45;6.35;;;;;;;23.43;17.27;100415.27;1807652;78;21115;-44
2021/04/11 11:29:45;;;;;;;7.95;5.75;;;;;;;23.85;17.52;100405.47;1796718;79;21083;-44
2021/04/11 11:34:12;;;;;;;9.58;6.30;;;;;;;24.34;16.54;100397.41;1790617;78;22811;-43
2021/04/11 11:36:51;;;;;;;8.28;6.58;;;;;;;24.38;17.39;100390.58;1714449;80;21028;-43
2021/04/11 11:39:41;;;;;;;9.08;6.97;;;;;;;24.36;16.93;100363.89;1767821;80;21544;-43
2021/04/11 11:42:58;;;;;;;9.93;6.53;;;;;;;24.72;16.57;100389.45;1784857;80;21024;-43
2021/04/11 11:45:42;;;;;;;7.55;6.25;;;;;;;24.64;16.49;100390.98;1743982;80;21032;-43
2021/04/11 11:48:25;;;;;;;12.33;7.28;;;;;;;24.69;15.94;100396.02;1721081;83;21308;-43
2021/04/11 11:51:25;;;;;;;10.15;6.65;;;;;;;24.80;16.30;100390.24;1722938;83;21641;-43
2021/04/11 11:54:09;;;;;;;7.03;6.10;;;;;;;24.65;16.59;100389.00;1722989;83;21213;-43
2021/04/11 11:57:07;;;;;;;9.45;7.42;;;;;;;24.68;17.04;100386.16;1750192;81;21047;-43
2021/04/11 11:59:41;;;;;;;10.95;8.05;;;;;;;24.59;16.69;100381.78;1693851;83;21071;-44
2021/04/11 12:02:36;;;;;;;9.30;6.42;;;;;;;24.46;17.18;100375.95;1697612;81;22226;-43
2021/04/11 12:05:21;;;;;;;10.23;6.33;;;;;;;24.64;17.42;100377.75;1739603;81;21206;-44
2021/04/11 12:08:16;;;;;;;10.28;7.22;;;;;;;25.18;16.76;100372.52;1741699;81;21055;-43
2021/04/11 12:11:02;;;;;;;9.40;6.53;;;;;;;25.71;15.53;100373.95;1705880;82;21052;-44
2021/04/11 12:13:54;;;;;;;8.23;6.35;;;;;;;26.09;15.15;100374.11;1718912;82;21644;-44
2021/04/11 12:16:38;;;;;;;9.75;6.95;;;;;;;26.36;14.66;100366.18;1733316;82;21088;-44
2021/04/11 12:19:24;;;;;;;9.73;6.70;;;;;;;26.65;14.06;100366.70;1718780;82;21176;-44
2021/04/11 12:22:20;;;;;;;7.75;6.20;;;;;;;26.73;14.08;100361.08;1740551;81;21461;-44
2021/04/11 12:24:59;;;;;;;10.50;7.03;;;;;;;26.49;14.17;100351.50;1819505;77;22924;-45
2021/04/11 12:27:31;;;;;;;8.48;6.67;;;;;;;26.14;14.37;100347.77;1812861;79;21632;-44
2021/04/11 12:30:00;;;;;;;7.78;5.70;;;;;;;25.82;14.82;100344.49;1778504;79;21377;-41
2021/04/11 12:32:40;;;;;;;8.48;6.85;;;;;;;25.65;15.12;100340.22;1790647;79;20993;-43
2021/04/11 12:35:20;;;;;;;9.43;6.97;;;;;;;25.77;14.87;100347.80;1773631;79;21000;-44
2021/04/11 12:38:20;;;;;;;7.95;6.47;;;;;;;25.87;15.05;100337.80;1780465;79;21000;-44
2021/04/11 12:41:00;;;;;;;9.73;7.53;;;;;;;26.23;14.79;100341.76;1799852;79;22179;-43
2021/04/11 12:43:47;;;;;;;11.08;7.10;;;;;;;26.51;15.02;100335.16;1723452;82;21268;-43
2021/04/11 12:46:46;;;;;;;10.05;7.08;;;;;;;26.88;15.00;100332.22;1768034;80;20953;-44